Time;durP1;ratioP1;P1;durP2;ratioP2;P2;SDS_P1;SDS_P2;PMS_P1;PMS_P2;Temp;Humidity;BMP_temperature;BMP_pressure;BME280_temperature;BME280_humidity;BME280_pressure;Samples;Min_cycle;Max_cycle;Signal;HPM_P1;HPM_P2
2020/12/17 00:01:59;;;;;;;19.08;12.07;;;;;;;;;;5095326;28;20036;-73
2020/12/17 00:04:25;;;;;;;17.02;11.05;;;;;;;;;;5094919;28;20036;-72
2020/12/17 00:06:51;;;;;;;18.10;11.50;;;;;;;;;;5094997;28;20038;-72
2020/12/17 00:09:16;;;;;;;15.82;10.77;;;;;;;;;;5095250;28;20393;-72
2020/12/17 00:11:42;;;;;;;15.55;10.57;;;;;;;;;;5095216;28;20028;-72
2020/12/17 00:14:08;;;;;;;20.83;11.05;;;;;;;;;;5095168;28;20528;-73
2020/12/17 00:16:34;;;;;;;22.58;10.43;;;;;;;;;;5094229;28;20024;-73
2020/12/17 00:18:59;;;;;;;22.20;11.25;;;;;;;;;;5094923;28;20093;-73
2020/12/17 00:21:24;;;;;;;17.55;11.75;;;;;;;;;;5094992;28;20135;-73
2020/12/17 00:23:50;;;;;;;17.42;12.35;;;;;;;;;;5094908;28;20043;-73
2020/12/17 00:26:16;;;;;;;17.25;11.20;;;;;;;;;;5094875;28;20126;-73
2020/12/17 00:28:41;;;;;;;18.23;11.07;;;;;;;;;;5093473;28;20040;-73
2020/12/17 00:31:06;;;;;;;15.65;11.68;;;;;;;;;;5094849;28;20048;-72
2020/12/17 00:33:32;;;;;;;16.08;10.02;;;;;;;;;;5094525;28;20072;-73
2020/12/17 00:35:57;;;;;;;18.85;12.18;;;;;;;;;;5094690;28;20055;-73
2020/12/17 00:38:22;;;;;;;18.63;12.30;;;;;;;;;;5094568;28;20055;-72
2020/12/17 00:40:48;;;;;;;24.88;13.48;;;;;;;;;;5094486;28;20032;-73
2020/12/17 00:43:13;;;;;;;25.38;14.52;;;;;;;;;;5094387;28;20055;-73
2020/12/17 00:45:38;;;;;;;20.83;12.90;;;;;;;;;;5094444;28;20039;-73
2020/12/17 00:48:04;;;;;;;18.92;12.25;;;;;;;;;;5093314;28;20076;-73
2020/12/17 00:50:29;;;;;;;17.80;11.73;;;;;;;;;;5094469;28;20032;-73
2020/12/17 00:52:55;;;;;;;20.38;12.65;;;;;;;;;;5094498;28;20039;-72
2020/12/17 00:55:20;;;;;;;23.98;14.10;;;;;;;;;;5092808;28;20040;-73
2020/12/17 00:57:45;;;;;;;21.98;13.05;;;;;;;;;;5093087;28;20036;-73
2020/12/17 01:00:11;;;;;;;22.38;12.23;;;;;;;;;;5093855;28;20127;-73
2020/12/17 01:02:36;;;;;;;18.30;10.50;;;;;;;;;;5093301;28;20028;-73
2020/12/17 01:05:03;;;;;;;23.30;12.32;;;;;;;;;;5094000;28;20036;-73
2020/12/17 01:07:28;;;;;;;19.58;12.85;;;;;;;;;;5093956;28;20111;-73
2020/12/17 01:09:54;;;;;;;18.90;12.65;;;;;;;;;;5093932;28;20131;-73
2020/12/17 01:12:19;;;;;;;22.33;13.20;;;;;;;;;;5094028;28;20043;-73
2020/12/17 01:14:44;;;;;;;18.65;11.55;;;;;;;;;;5094047;28;20035;-73
2020/12/17 01:17:10;;;;;;;17.90;10.63;;;;;;;;;;5093813;28;20075;-72
2020/12/17 01:19:35;;;;;;;16.50;10.93;;;;;;;;;;5093550;28;20127;-72
2020/12/17 01:22:02;;;;;;;17.40;10.63;;;;;;;;;;5093073;28;20036;-73
2020/12/17 01:24:28;;;;;;;16.83;11.07;;;;;;;;;;5093866;28;20032;-73
2020/12/17 01:26:54;;;;;;;25.63;14.07;;;;;;;;;;5093708;28;20384;-73
2020/12/17 01:29:20;;;;;;;24.20;13.57;;;;;;;;;;5093797;28;20044;-73
2020/12/17 01:31:45;;;;;;;25.20;13.25;;;;;;;;;;5093567;28;20039;-73
2020/12/17 01:34:11;;;;;;;19.52;11.13;;;;;;;;;;5093439;28;20165;-73
2020/12/17 01:36:36;;;;;;;17.80;10.40;;;;;;;;;;5092154;28;20173;-73
2020/12/17 01:39:02;;;;;;;17.52;11.20;;;;;;;;;;5093465;28;20085;-73
2020/12/17 01:41:28;;;;;;;17.48;11.20;;;;;;;;;;5093543;28;20039;-72
2020/12/17 01:44:00;;;;;;;18.95;11.68;;;;;;;;;;5093475;28;20036;-73
2020/12/17 01:46:25;;;;;;;18.77;11.20;;;;;;;;;;5092325;28;20084;-73
2020/12/17 01:48:51;;;;;;;20.15;12.23;;;;;;;;;;5092999;28;20031;-73
2020/12/17 01:51:16;;;;;;;20.50;11.98;;;;;;;;;;5093473;28;20032;-73
2020/12/17 01:53:42;;;;;;;18.05;11.00;;;;;;;;;;5093489;28;20408;-73
2020/12/17 01:56:21;;;;;;;20.35;12.60;;;;;;;;;;5093408;28;20107;-73
2020/12/17 01:59:07;;;;;;;16.92;10.02;;;;;;;;;;5093034;28;20036;-74
2020/12/17 02:01:32;;;;;;;17.23;9.77;;;;;;;;;;5093015;28;20085;-73
2020/12/17 02:03:59;;;;;;;17.17;10.73;;;;;;;;;;5093169;28;20032;-73
2020/12/17 02:06:24;;;;;;;18.55;10.65;;;;;;;;;;5093165;28;20043;-73
2020/12/17 02:08:53;;;;;;;26.33;13.65;;;;;;;;;;5093252;28;20040;-73
2020/12/17 02:11:20;;;;;;;21.45;12.93;;;;;;;;;;5093327;28;20028;-73
2020/12/17 02:13:46;;;;;;;21.60;12.80;;;;;;;;;;5095703;28;20032;-72
2020/12/17 02:16:13;;;;;;;20.98;12.25;;;;;;;;;;5095979;28;20044;-73
2020/12/17 02:18:38;;;;;;;25.90;13.18;;;;;;;;;;5097424;28;20039;-73
2020/12/17 02:21:03;;;;;;;18.50;11.32;;;;;;;;;;5097098;28;20031;-73
2020/12/17 02:23:29;;;;;;;22.75;12.80;;;;;;;;;;5096072;28;20027;-73
2020/12/17 02:25:54;;;;;;;19.55;11.35;;;;;;;;;;5095861;28;20100;-73
2020/12/17 02:28:21;;;;;;;20.25;12.35;;;;;;;;;;5097099;28;20134;-73
2020/12/17 02:30:47;;;;;;;23.25;11.23;;;;;;;;;;5096815;28;20036;-72
2020/12/17 02:33:12;;;;;;;25.63;14.73;;;;;;;;;;5097190;28;20035;-73
2020/12/17 02:35:38;;;;;;;17.60;10.77;;;;;;;;;;5096688;28;20024;-72
2020/12/17 02:38:04;;;;;;;17.00;10.30;;;;;;;;;;5096798;28;20093;-73
2020/12/17 02:40:29;;;;;;;21.10;11.75;;;;;;;;;;5097108;28;20036;-73
2020/12/17 02:42:55;;;;;;;23.88;13.07;;;;;;;;;;5096926;28;20028;-73
2020/12/17 02:45:20;;;;;;;15.27;10.43;;;;;;;;;;5096540;28;20489;-72
2020/12/17 02:47:46;;;;;;;15.90;10.20;;;;;;;;;;5096474;28;20038;-73
2020/12/17 02:50:13;;;;;;;22.02;12.00;;;;;;;;;;5095910;28;20047;-73
2020/12/17 02:52:40;;;;;;;17.42;11.25;;;;;;;;;;5096269;28;20088;-72
2020/12/17 02:55:06;;;;;;;20.10;12.13;;;;;;;;;;5096733;28;20039;-73
2020/12/17 02:57:31;;;;;;;25.42;13.02;;;;;;;;;;5096757;28;20032;-72
2020/12/17 02:59:57;;;;;;;20.67;12.88;;;;;;;;;;5096481;28;20070;-73
2020/12/17 03:02:22;;;;;;;23.85;13.02;;;;;;;;;;5096603;28;20444;-73
2020/12/17 03:04:47;;;;;;;25.17;13.93;;;;;;;;;;5096402;28;20032;-72
2020/12/17 03:07:13;;;;;;;20.98;13.45;;;;;;;;;;5096264;28;20028;-73
2020/12/17 03:09:38;;;;;;;22.30;13.40;;;;;;;;;;5096117;28;20060;-73
2020/12/17 03:12:03;;;;;;;24.58;13.70;;;;;;;;;;5096349;28;20442;-73
2020/12/17 03:14:29;;;;;;;18.00;11.82;;;;;;;;;;5096132;28;20028;-73
2020/12/17 03:16:54;;;;;;;24.77;13.20;;;;;;;;;;5095524;28;20386;-73
2020/12/17 03:19:19;;;;;;;20.13;11.90;;;;;;;;;;5095906;28;20040;-74
2020/12/17 03:21:45;;;;;;;21.42;13.13;;;;;;;;;;5095916;28;20043;-74
2020/12/17 03:24:10;;;;;;;20.33;12.30;;;;;;;;;;5095609;28;20118;-73
2020/12/17 03:26:35;;;;;;;27.23;13.77;;;;;;;;;;5095871;28;20363;-74
2020/12/17 03:29:01;;;;;;;23.58;14.35;;;;;;;;;;5096049;28;20154;-76
2020/12/17 03:31:26;;;;;;;31.80;16.73;;;;;;;;;;5095751;28;20040;-73
2020/12/17 03:33:52;;;;;;;22.30;14.25;;;;;;;;;;5095262;28;20028;-73
2020/12/17 03:36:17;;;;;;;24.42;13.93;;;;;;;;;;5095588;28;20676;-74
2020/12/17 03:38:42;;;;;;;25.65;14.23;;;;;;;;;;5077848;28;20036;-73
2020/12/17 03:41:08;;;;;;;22.10;14.45;;;;;;;;;;5095869;28;20035;-73
2020/12/17 03:43:33;;;;;;;21.17;12.75;;;;;;;;;;5094278;28;20119;-73
2020/12/17 03:45:59;;;;;;;22.23;13.73;;;;;;;;;;5095732;28;20032;-73
2020/12/17 03:48:24;;;;;;;18.17;11.30;;;;;;;;;;5095488;28;20036;-74
2020/12/17 03:50:49;;;;;;;27.05;15.30;;;;;;;;;;5095656;28;20044;-74
2020/12/17 03:53:14;;;;;;;34.88;18.40;;;;;;;;;;5095657;28;20040;-74
2020/12/17 03:55:40;;;;;;;36.60;17.80;;;;;;;;;;5094062;28;20512;-73
2020/12/17 03:58:05;;;;;;;22.02;13.77;;;;;;;;;;5094459;28;20047;-73
2020/12/17 04:00:31;;;;;;;24.85;15.05;;;;;;;;;;5095008;28;20044;-74
2020/12/17 04:02:56;;;;;;;26.63;15.02;;;;;;;;;;5095218;28;20112;-73
2020/12/17 04:05:23;;;;;;;25.45;14.82;;;;;;;;;;5095121;28;20051;-73
2020/12/17 04:07:48;;;;;;;28.33;15.52;;;;;;;;;;5095175;28;20123;-73
2020/12/17 04:10:14;;;;;;;34.63;17.48;;;;;;;;;;5095366;28;20113;-73
2020/12/17 04:12:39;;;;;;;36.78;19.45;;;;;;;;;;5095079;28;20123;-73
2020/12/17 04:15:05;;;;;;;28.15;16.00;;;;;;;;;;5094872;28;20081;-73
2020/12/17 04:17:30;;;;;;;30.90;17.38;;;;;;;;;;5094930;28;20044;-73
2020/12/17 04:19:55;;;;;;;42.08;20.83;;;;;;;;;;5094809;28;20050;-73
2020/12/17 04:22:21;;;;;;;32.38;18.55;;;;;;;;;;5094998;28;20043;-73
2020/12/17 04:24:47;;;;;;;26.42;15.93;;;;;;;;;;5094991;28;20040;-73
2020/12/17 04:27:13;;;;;;;21.13;12.88;;;;;;;;;;5094964;28;20428;-73
2020/12/17 04:29:38;;;;;;;29.98;16.65;;;;;;;;;;5094428;28;20032;-73
2020/12/17 04:32:04;;;;;;;30.95;16.85;;;;;;;;;;5094538;28;20402;-73
2020/12/17 04:34:29;;;;;;;24.77;13.85;;;;;;;;;;5093688;28;20119;-73
2020/12/17 04:36:55;;;;;;;28.90;15.93;;;;;;;;;;5093568;28;20059;-73
2020/12/17 04:39:21;;;;;;;24.65;14.23;;;;;;;;;;5094766;28;20044;-73
2020/12/17 04:41:47;;;;;;;28.55;16.98;;;;;;;;;;5094498;28;20487;-73
2020/12/17 04:44:15;;;;;;;23.90;14.88;;;;;;;;;;5093257;28;20092;-73
2020/12/17 04:47:02;;;;;;;30.33;17.15;;;;;;;;;;5094407;28;20048;-73
2020/12/17 04:49:33;;;;;;;35.22;18.13;;;;;;;;;;5093567;28;20435;-73
2020/12/17 04:51:59;;;;;;;29.88;16.60;;;;;;;;;;5094534;28;20036;-73
2020/12/17 04:54:25;;;;;;;41.90;20.63;;;;;;;;;;5094347;28;20028;-73
2020/12/17 04:57:12;;;;;;;30.23;16.67;;;;;;;;;;5094349;28;20042;-73
2020/12/17 04:59:49;;;;;;;25.80;15.00;;;;;;;;;;5092907;28;20062;-73
2020/12/17 05:02:17;;;;;;;26.65;15.02;;;;;;;;;;5093952;28;20040;-73
2020/12/17 05:04:44;;;;;;;25.60;15.68;;;;;;;;;;5094232;28;20047;-73
2020/12/17 05:07:11;;;;;;;25.13;14.68;;;;;;;;;;5094313;28;20074;-73
2020/12/17 05:09:38;;;;;;;26.27;15.15;;;;;;;;;;5093291;28;20043;-73
2020/12/17 05:12:04;;;;;;;26.63;15.13;;;;;;;;;;5094094;28;20027;-73
2020/12/17 05:14:30;;;;;;;25.80;14.77;;;;;;;;;;5093519;28;20572;-73
2020/12/17 05:16:56;;;;;;;27.98;15.82;;;;;;;;;;5094029;28;20036;-73
2020/12/17 05:19:23;;;;;;;28.65;14.90;;;;;;;;;;5093921;28;20036;-73
2020/12/17 05:21:49;;;;;;;40.95;18.58;;;;;;;;;;5093696;28;20031;-73
2020/12/17 05:24:14;;;;;;;28.73;17.00;;;;;;;;;;5093920;28;20386;-73
2020/12/17 05:26:40;;;;;;;33.75;18.27;;;;;;;;;;5093865;28;20048;-73
2020/12/17 05:29:06;;;;;;;34.92;15.45;;;;;;;;;;5093536;28;20039;-73
2020/12/17 05:31:35;;;;;;;21.40;13.07;;;;;;;;;;5092632;28;20028;-73
2020/12/17 05:34:04;;;;;;;25.85;14.68;;;;;;;;;;5093930;28;20024;-73
2020/12/17 05:36:31;;;;;;;24.48;13.55;;;;;;;;;;5093580;28;20032;-73
2020/12/17 05:39:05;;;;;;;33.33;17.02;;;;;;;;;;5093538;28;20073;-73
2020/12/17 05:41:32;;;;;;;37.00;17.95;;;;;;;;;;5093411;28;20050;-73
2020/12/17 05:44:11;;;;;;;29.88;16.98;;;;;;;;;;5093373;28;20447;-73
2020/12/17 05:46:38;;;;;;;23.83;14.20;;;;;;;;;;5093367;28;20039;-73
2020/12/17 05:49:18;;;;;;;26.13;13.82;;;;;;;;;;5091925;28;20040;-73
2020/12/17 05:51:44;;;;;;;40.58;18.52;;;;;;;;;;5093512;28;20040;-73
2020/12/17 05:54:25;;;;;;;37.78;19.52;;;;;;;;;;5093493;28;20036;-73
2020/12/17 05:57:04;;;;;;;41.65;20.65;;;;;;;;;;5093200;28;20043;-73
2020/12/17 05:59:29;;;;;;;40.63;20.33;;;;;;;;;;5093173;28;20047;-73
2020/12/17 06:01:54;;;;;;;30.95;17.08;;;;;;;;;;5093267;28;20451;-73
2020/12/17 06:04:20;;;;;;;26.65;15.32;;;;;;;;;;5093253;28;20044;-73
2020/12/17 06:06:47;;;;;;;33.15;17.75;;;;;;;;;;5093354;28;20031;-73
2020/12/17 06:09:21;;;;;;;34.15;19.42;;;;;;;;;;5093427;28;20031;-73
2020/12/17 06:11:47;;;;;;;25.35;14.15;;;;;;;;;;5093346;28;20036;-73
2020/12/17 06:14:13;;;;;;;23.88;14.57;;;;;;;;;;5093420;28;20351;-73
2020/12/17 06:16:43;;;;;;;25.17;15.32;;;;;;;;;;5093068;28;20036;-73
2020/12/17 06:19:11;;;;;;;31.73;17.23;;;;;;;;;;5092935;28;20534;-73
2020/12/17 06:21:40;;;;;;;24.90;15.73;;;;;;;;;;5093148;28;20040;-73
2020/12/17 06:24:05;;;;;;;25.20;14.13;;;;;;;;;;5093079;28;20028;-73
2020/12/17 06:26:39;;;;;;;22.98;13.88;;;;;;;;;;5092071;28;20482;-73
2020/12/17 06:29:16;;;;;;;36.05;19.08;;;;;;;;;;5093068;28;20467;-73
2020/12/17 06:31:57;;;;;;;30.15;17.23;;;;;;;;;;5093123;28;20082;-73
2020/12/17 06:34:29;;;;;;;22.02;14.45;;;;;;;;;;5093152;28;20081;-73
2020/12/17 06:36:58;;;;;;;27.67;16.42;;;;;;;;;;5092847;28;20046;-73
2020/12/17 06:39:24;;;;;;;38.13;21.75;;;;;;;;;;5092796;28;20032;-73
2020/12/17 06:41:50;;;;;;;27.02;16.58;;;;;;;;;;5092790;28;20044;-73
2020/12/17 06:44:30;;;;;;;27.25;17.63;;;;;;;;;;5093055;28;20090;-73
2020/12/17 06:47:00;;;;;;;22.80;15.55;;;;;;;;;;5093045;28;20371;-72
2020/12/17 06:49:29;;;;;;;35.63;19.15;;;;;;;;;;5092905;28;20032;-73
2020/12/17 06:52:08;;;;;;;36.47;17.92;;;;;;;;;;5091899;28;20031;-73
2020/12/17 06:54:41;;;;;;;25.58;15.95;;;;;;;;;;5092925;28;20035;-73
2020/12/17 06:57:12;;;;;;;26.13;17.02;;;;;;;;;;5092818;28;20040;-72
2020/12/17 06:59:42;;;;;;;23.85;15.27;;;;;;;;;;5093283;28;20055;-74
2020/12/17 07:02:08;;;;;;;23.52;13.73;;;;;;;;;;5096729;28;20111;-73
2020/12/17 07:04:42;;;;;;;24.17;15.63;;;;;;;;;;5096479;28;20123;-73
2020/12/17 07:07:24;;;;;;;24.42;15.82;;;;;;;;;;5096320;28;20046;-73
2020/12/17 07:09:54;;;;;;;23.80;16.02;;;;;;;;;;5096607;28;20047;-73
2020/12/17 07:12:34;;;;;;;28.48;16.73;;;;;;;;;;5096512;28;20374;-74
2020/12/17 07:15:01;;;;;;;21.35;13.80;;;;;;;;;;5096406;28;20134;-74
2020/12/17 07:17:27;;;;;;;20.20;13.80;;;;;;;;;;5096391;28;20077;-74
2020/12/17 07:19:52;;;;;;;18.98;13.05;;;;;;;;;;5095240;28;20024;-74
2020/12/17 07:22:18;;;;;;;19.45;12.77;;;;;;;;;;5096208;28;20107;-74
2020/12/17 07:24:46;;;;;;;19.25;12.68;;;;;;;;;;5096017;28;20130;-74
2020/12/17 07:27:12;;;;;;;19.73;12.75;;;;;;;;;;5096020;28;20039;-73
2020/12/17 07:29:38;;;;;;;18.73;12.68;;;;;;;;;;5096204;28;20465;-73
2020/12/17 07:32:45;;;;;;;17.13;12.93;;;;;;;;;;5096075;28;20046;-73
2020/12/17 07:35:10;;;;;;;19.20;13.33;;;;;;;;;;5073206;28;20036;-72
2020/12/17 07:37:51;;;;;;;17.67;12.88;;;;;;;;;;5087524;28;20366;-73
2020/12/17 07:40:22;;;;;;;18.20;12.35;;;;;;;;;;5094687;28;20055;-74
2020/12/17 07:43:07;;;;;;;19.60;12.65;;;;;;;;;;5095590;28;20085;-74
2020/12/17 07:45:54;;;;;;;20.83;11.98;;;;;;;;;;5095037;28;20154;-74
2020/12/17 07:48:38;;;;;;;17.20;11.90;;;;;;;;;;5095460;28;20032;-75
2020/12/17 07:51:09;;;;;;;15.60;10.73;;;;;;;;;;5095516;28;20036;-75
2020/12/17 07:53:35;;;;;;;19.25;12.82;;;;;;;;;;5095640;28;20039;-73
2020/12/17 07:56:01;;;;;;;17.08;12.77;;;;;;;;;;5095147;28;20036;-73
2020/12/17 07:58:27;;;;;;;14.95;11.80;;;;;;;;;;5094884;28;20036;-74
2020/12/17 08:00:55;;;;;;;16.65;11.57;;;;;;;;;;5094942;28;20052;-75
2020/12/17 08:03:21;;;;;;;17.42;11.52;;;;;;;;;;5093373;28;20653;-75
2020/12/17 08:05:46;;;;;;;17.70;12.50;;;;;;;;;;5095226;28;20028;-73
2020/12/17 08:08:20;;;;;;;19.73;13.23;;;;;;;;;;5095461;28;20072;-73
2020/12/17 08:10:46;;;;;;;19.38;12.88;;;;;;;;;;5092839;28;20497;-73
2020/12/17 08:13:11;;;;;;;18.27;12.48;;;;;;;;;;5094632;28;20584;-73
2020/12/17 08:15:37;;;;;;;18.45;13.40;;;;;;;;;;5093833;28;20115;-74
2020/12/17 08:18:04;;;;;;;28.10;16.85;;;;;;;;;;5094009;28;20059;-74
2020/12/17 08:20:30;;;;;;;19.27;13.30;;;;;;;;;;5093728;28;20473;-73
2020/12/17 08:22:56;;;;;;;21.42;13.50;;;;;;;;;;5095173;28;20039;-74
2020/12/17 08:25:23;;;;;;;22.25;13.35;;;;;;;;;;5093695;28;20382;-73
2020/12/17 08:27:51;;;;;;;15.75;11.60;;;;;;;;;;5094882;28;20036;-74
2020/12/17 08:30:20;;;;;;;18.38;12.18;;;;;;;;;;5093111;28;20474;-75
2020/12/17 08:32:53;;;;;;;18.02;12.40;;;;;;;;;;5094003;28;20028;-75
2020/12/17 08:35:23;;;;;;;16.13;11.02;;;;;;;;;;5094460;28;20065;-75
2020/12/17 08:37:51;;;;;;;16.63;11.82;;;;;;;;;;5094836;28;20067;-74
2020/12/17 08:40:22;;;;;;;16.77;12.13;;;;;;;;;;5093428;28;20035;-75
2020/12/17 08:42:50;;;;;;;16.42;11.80;;;;;;;;;;5085395;28;20032;-74
2020/12/17 08:45:18;;;;;;;19.65;11.82;;;;;;;;;;5086295;28;20040;-74
2020/12/17 08:47:45;;;;;;;17.30;11.93;;;;;;;;;;5093350;28;20435;-74
2020/12/17 08:50:11;;;;;;;20.35;14.23;;;;;;;;;;5088100;28;20037;-75
2020/12/17 08:52:37;;;;;;;25.42;15.82;;;;;;;;;;5073204;28;20092;-75
2020/12/17 08:55:07;;;;;;;23.00;15.57;;;;;;;;;;5072296;28;20107;-74
2020/12/17 08:57:33;;;;;;;20.25;13.25;;;;;;;;;;5074067;28;20044;-75
2020/12/17 08:59:58;;;;;;;34.78;19.92;;;;;;;;;;5078888;28;20088;-75
2020/12/17 09:02:25;;;;;;;19.58;14.00;;;;;;;;;;5094268;28;20078;-75
2020/12/17 09:04:58;;;;;;;23.73;14.00;;;;;;;;;;5094242;28;20501;-75
2020/12/17 09:07:24;;;;;;;19.95;13.13;;;;;;;;;;5093916;28;20482;-75
2020/12/17 09:09:50;;;;;;;20.38;12.80;;;;;;;;;;5094272;28;20027;-75
2020/12/17 09:12:26;;;;;;;19.83;12.90;;;;;;;;;;5094187;28;20389;-74
2020/12/17 09:14:51;;;;;;;17.98;12.93;;;;;;;;;;5094049;28;20478;-74
2020/12/17 09:17:17;;;;;;;16.50;12.02;;;;;;;;;;5093896;28;20036;-75
2020/12/17 09:19:44;;;;;;;18.08;11.88;;;;;;;;;;5093970;28;20043;-75
2020/12/17 09:22:10;;;;;;;17.52;12.02;;;;;;;;;;5093452;28;20059;-75
2020/12/17 09:24:37;;;;;;;19.33;11.82;;;;;;;;;;5092479;28;20490;-75
2020/12/17 09:27:21;;;;;;;17.15;11.35;;;;;;;;;;5093799;28;20101;-74
2020/12/17 09:30:11;;;;;;;17.35;11.90;;;;;;;;;;5092485;28;20035;-75
2020/12/17 09:32:59;;;;;;;21.40;12.43;;;;;;;;;;5093797;28;20107;-75
2020/12/17 09:35:36;;;;;;;20.17;12.73;;;;;;;;;;5093554;28;20127;-74
2020/12/17 09:38:09;;;;;;;16.95;11.75;;;;;;;;;;5092812;28;20039;-74
2020/12/17 09:40:37;;;;;;;15.88;11.00;;;;;;;;;;5093593;28;20032;-74
2020/12/17 09:43:10;;;;;;;16.35;11.90;;;;;;;;;;5093819;28;20122;-74
2020/12/17 09:45:37;;;;;;;17.95;12.57;;;;;;;;;;5093025;28;20046;-75
2020/12/17 09:48:26;;;;;;;16.50;10.82;;;;;;;;;;5093673;28;20040;-73
2020/12/17 09:51:09;;;;;;;14.93;10.95;;;;;;;;;;5093443;28;20040;-74
2020/12/17 09:53:39;;;;;;;17.83;12.32;;;;;;;;;;5092297;28;20051;-75
2020/12/17 09:56:12;;;;;;;15.65;11.10;;;;;;;;;;5093325;28;20038;-75
2020/12/17 09:58:46;;;;;;;21.35;12.57;;;;;;;;;;5093040;28;20390;-74
2020/12/17 10:01:13;;;;;;;17.75;12.18;;;;;;;;;;5090898;28;20047;-74
2020/12/17 10:03:39;;;;;;;17.15;11.63;;;;;;;;;;5093227;28;20362;-75
2020/12/17 10:06:05;;;;;;;22.30;13.02;;;;;;;;;;5093412;28;20122;-74
2020/12/17 10:08:30;;;;;;;16.05;11.85;;;;;;;;;;5093445;28;20453;-74
2020/12/17 10:10:56;;;;;;;20.95;13.85;;;;;;;;;;5093342;28;20118;-74
2020/12/17 10:13:21;;;;;;;18.48;13.07;;;;;;;;;;5093326;28;20118;-74
2020/12/17 10:15:47;;;;;;;17.63;12.30;;;;;;;;;;5091924;28;20385;-76
2020/12/17 10:18:12;;;;;;;17.90;12.63;;;;;;;;;;5093417;28;20470;-75
2020/12/17 10:20:37;;;;;;;18.60;12.38;;;;;;;;;;5093337;28;20454;-76
2020/12/17 10:23:03;;;;;;;18.27;13.25;;;;;;;;;;5092318;28;20039;-76
2020/12/17 10:25:28;;;;;;;17.00;11.00;;;;;;;;;;5093063;28;20036;-76
2020/12/17 10:27:58;;;;;;;19.90;13.40;;;;;;;;;;5093345;28;20044;-76
2020/12/17 10:30:24;;;;;;;16.98;11.60;;;;;;;;;;5091964;28;20127;-75
2020/12/17 10:32:50;;;;;;;18.67;12.57;;;;;;;;;;5093207;28;20123;-75
2020/12/17 10:35:15;;;;;;;17.40;12.85;;;;;;;;;;5096139;28;20468;-75
2020/12/17 10:37:42;;;;;;;19.42;13.35;;;;;;;;;;5097138;28;20036;-75
2020/12/17 10:40:11;;;;;;;19.05;12.65;;;;;;;;;;5097116;28;20078;-75
2020/12/17 10:42:40;;;;;;;18.15;12.05;;;;;;;;;;5097113;28;20409;-75
2020/12/17 10:45:07;;;;;;;22.52;13.00;;;;;;;;;;5096532;28;20092;-75
2020/12/17 10:47:32;;;;;;;18.02;11.90;;;;;;;;;;5096802;28;20444;-75
2020/12/17 10:49:57;;;;;;;17.05;12.15;;;;;;;;;;5097030;28;20044;-75
2020/12/17 10:52:23;;;;;;;19.10;11.27;;;;;;;;;;5096925;28;20042;-75
2020/12/17 10:54:48;;;;;;;21.27;12.82;;;;;;;;;;5094472;28;20090;-75
2020/12/17 10:57:14;;;;;;;18.55;12.05;;;;;;;;;;5096712;28;20489;-75
2020/12/17 10:59:39;;;;;;;16.13;11.52;;;;;;;;;;5096418;28;20131;-75
2020/12/17 11:02:04;;;;;;;21.75;11.88;;;;;;;;;;5096514;28;20032;-75
2020/12/17 11:04:30;;;;;;;17.98;12.05;;;;;;;;;;5096703;28;20035;-75
2020/12/17 11:06:58;;;;;;;15.18;11.55;;;;;;;;;;5096646;28;20043;-75
2020/12/17 11:09:24;;;;;;;17.60;12.13;;;;;;;;;;5096265;28;20032;-75
2020/12/17 11:11:51;;;;;;;16.90;11.25;;;;;;;;;;5096530;28;20040;-75
2020/12/17 11:14:17;;;;;;;20.10;12.50;;;;;;;;;;5096547;28;20027;-75
2020/12/17 11:16:42;;;;;;;18.48;12.13;;;;;;;;;;5096259;28;20036;-75
2020/12/17 11:19:07;;;;;;;18.50;12.75;;;;;;;;;;5096460;28;20043;-76
2020/12/17 11:21:33;;;;;;;19.02;12.50;;;;;;;;;;5094977;28;20023;-75
2020/12/17 11:23:58;;;;;;;17.35;11.98;;;;;;;;;;5096318;28;20371;-75
2020/12/17 11:26:23;;;;;;;15.70;10.68;;;;;;;;;;5096078;28;20036;-75
2020/12/17 11:28:49;;;;;;;19.92;11.95;;;;;;;;;;5096152;28;20036;-75
2020/12/17 11:31:14;;;;;;;17.63;11.90;;;;;;;;;;5095892;28;20109;-75
2020/12/17 11:33:39;;;;;;;18.55;11.35;;;;;;;;;;5096103;28;20028;-75
2020/12/17 11:36:05;;;;;;;18.58;12.27;;;;;;;;;;5094392;28;20036;-75
2020/12/17 11:38:30;;;;;;;16.73;11.45;;;;;;;;;;5095981;28;20040;-75
2020/12/17 11:40:56;;;;;;;18.52;11.95;;;;;;;;;;5095901;28;20071;-75
2020/12/17 11:43:21;;;;;;;16.73;10.60;;;;;;;;;;5095750;28;20130;-75
2020/12/17 11:45:46;;;;;;;12.93;9.88;;;;;;;;;;5095156;28;20115;-75
2020/12/17 11:48:12;;;;;;;16.27;11.00;;;;;;;;;;5094579;28;20474;-75
2020/12/17 11:50:38;;;;;;;15.32;10.85;;;;;;;;;;5095741;28;20093;-75
2020/12/17 11:53:03;;;;;;;15.80;10.65;;;;;;;;;;5095814;28;20099;-75
2020/12/17 11:55:28;;;;;;;15.48;10.93;;;;;;;;;;5095608;28;20075;-75
2020/12/17 11:57:54;;;;;;;17.98;11.88;;;;;;;;;;5095384;28;20127;-75
2020/12/17 12:00:19;;;;;;;14.90;10.50;;;;;;;;;;5095177;28;20044;-75
2020/12/17 12:02:44;;;;;;;14.90;10.57;;;;;;;;;;5095482;28;20123;-75
2020/12/17 12:05:10;;;;;;;12.95;10.13;;;;;;;;;;5093812;28;20039;-75
2020/12/17 12:07:36;;;;;;;13.05;9.88;;;;;;;;;;5094901;28;20039;-74
2020/12/17 12:10:04;;;;;;;12.38;9.57;;;;;;;;;;5093946;28;20070;-74
2020/12/17 12:12:30;;;;;;;17.15;10.95;;;;;;;;;;5094709;28;20042;-74
2020/12/17 12:14:56;;;;;;;16.55;10.02;;;;;;;;;;5094124;28;20114;-74
2020/12/17 12:17:21;;;;;;;12.95;9.82;;;;;;;;;;5094889;28;20451;-74
2020/12/17 12:19:47;;;;;;;14.85;9.82;;;;;;;;;;5095040;28;20028;-74
2020/12/17 12:22:12;;;;;;;13.38;9.85;;;;;;;;;;5094871;28;20077;-75
2020/12/17 12:24:38;;;;;;;12.10;8.68;;;;;;;;;;5095137;28;20032;-76
2020/12/17 12:27:04;;;;;;;11.63;8.82;;;;;;;;;;5095153;28;20478;-77
2020/12/17 12:29:29;;;;;;;15.63;9.52;;;;;;;;;;5095058;28;20343;-76
2020/12/17 12:31:54;;;;;;;13.07;9.27;;;;;;;;;;5094987;28;20462;-76
2020/12/17 12:34:20;;;;;;;10.05;7.97;;;;;;;;;;5094616;28;20042;-77
2020/12/17 12:36:54;;;;;;;11.82;8.82;;;;;;;;;;5094744;28;20036;-76
2020/12/17 12:39:20;;;;;;;12.82;8.05;;;;;;;;;;5094804;28;20032;-74
2020/12/17 12:41:50;;;;;;;16.48;9.77;;;;;;;;;;5094569;28;20027;-76
2020/12/17 12:44:16;;;;;;;11.48;8.32;;;;;;;;;;5094731;28;20035;-76
2020/12/17 12:46:42;;;;;;;16.15;8.82;;;;;;;;;;5094719;28;20036;-76
2020/12/17 12:49:07;;;;;;;9.35;7.30;;;;;;;;;;5094414;28;20038;-72
2020/12/17 12:51:33;;;;;;;11.02;7.85;;;;;;;;;;5093192;28;20462;-75
2020/12/17 12:53:59;;;;;;;13.05;7.68;;;;;;;;;;5094616;28;20583;-75
2020/12/17 12:56:25;;;;;;;13.30;7.43;;;;;;;;;;5094333;28;20043;-75
2020/12/17 12:58:51;;;;;;;10.20;7.32;;;;;;;;;;5093409;28;20074;-74
2020/12/17 13:01:16;;;;;;;10.48;7.13;;;;;;;;;;5094209;28;20064;-74
2020/12/17 13:03:41;;;;;;;10.10;6.82;;;;;;;;;;5094285;28;20040;-74
2020/12/17 13:06:27;;;;;;;9.65;7.55;;;;;;;;;;5094264;28;20036;-74
2020/12/17 13:08:52;;;;;;;11.47;7.73;;;;;;;;;;5093899;28;20059;-74
2020/12/17 13:11:19;;;;;;;9.73;6.68;;;;;;;;;;5094108;28;20036;-74
2020/12/17 13:13:45;;;;;;;9.95;7.30;;;;;;;;;;5092649;28;20028;-74
2020/12/17 13:16:11;;;;;;;9.90;7.22;;;;;;;;;;5093926;28;20088;-74
2020/12/17 13:18:37;;;;;;;9.95;7.72;;;;;;;;;;5092961;28;20028;-75
2020/12/17 13:21:03;;;;;;;9.15;7.00;;;;;;;;;;5093928;28;20036;-76
2020/12/17 13:23:30;;;;;;;9.13;6.45;;;;;;;;;;5092270;28;20496;-75
2020/12/17 13:25:55;;;;;;;9.25;6.60;;;;;;;;;;5093962;28;20043;-75
2020/12/17 13:28:21;;;;;;;12.80;7.00;;;;;;;;;;5093967;28;20131;-74
2020/12/17 13:30:47;;;;;;;9.15;6.47;;;;;;;;;;5093788;28;20040;-74
2020/12/17 13:33:12;;;;;;;8.63;6.53;;;;;;;;;;5093679;28;20036;-74
2020/12/17 13:35:38;;;;;;;8.93;6.75;;;;;;;;;;5097791;28;20038;-74
2020/12/17 13:38:03;;;;;;;9.13;6.95;;;;;;;;;;5090417;28;20036;-74
2020/12/17 13:40:28;;;;;;;8.80;5.90;;;;;;;;;;5075529;28;20096;-74
2020/12/17 13:42:54;;;;;;;8.10;6.13;;;;;;;;;;5112661;28;20114;-75
2020/12/17 13:45:19;;;;;;;6.45;5.28;;;;;;;;;;5112297;28;20035;-74
2020/12/17 13:47:44;;;;;;;9.85;6.68;;;;;;;;;;5092872;28;20393;-74
2020/12/17 13:50:11;;;;;;;9.65;6.57;;;;;;;;;;5093618;28;20078;-75
2020/12/17 13:52:36;;;;;;;8.45;6.15;;;;;;;;;;5093380;28;20046;-74
2020/12/17 13:55:02;;;;;;;7.70;6.40;;;;;;;;;;5093482;28;20505;-75
2020/12/17 13:57:28;;;;;;;13.13;6.75;;;;;;;;;;5093445;28;20500;-74
2020/12/17 13:59:53;;;;;;;10.13;6.35;;;;;;;;;;5093319;28;20492;-75
2020/12/17 14:02:18;;;;;;;11.82;6.97;;;;;;;;;;5091941;28;20103;-74
2020/12/17 14:04:43;;;;;;;11.05;7.72;;;;;;;;;;5093452;28;20428;-74
2020/12/17 14:07:09;;;;;;;10.02;6.93;;;;;;;;;;5093309;28;20043;-74
2020/12/17 14:09:35;;;;;;;14.85;7.13;;;;;;;;;;5095386;28;20428;-75
2020/12/17 14:12:00;;;;;;;8.77;6.80;;;;;;;;;;5097785;28;20143;-74
2020/12/17 14:14:25;;;;;;;9.13;6.95;;;;;;;;;;5097655;28;20036;-75
2020/12/17 14:16:51;;;;;;;9.65;7.47;;;;;;;;;;5096215;28;20040;-74
2020/12/17 14:19:16;;;;;;;10.68;7.25;;;;;;;;;;5097453;28;20036;-75
2020/12/17 14:21:42;;;;;;;10.88;7.60;;;;;;;;;;5097387;28;20085;-74
2020/12/17 14:24:11;;;;;;;11.60;7.93;;;;;;;;;;5097358;28;20040;-74